createdAt,value
2019-03-05T00:04:55.855Z,65.04
2019-03-05T00:07:25.596Z,65.53
2019-03-05T00:09:55.412Z,65.26
2019-03-05T00:12:25.336Z,65.10
2019-03-05T00:14:54.757Z,64.80
2019-03-05T00:17:46.982Z,64.59
2019-03-05T00:20:16.903Z,64.31
2019-03-05T00:26:20.959Z,64.64
2019-03-05T00:29:28.397Z,64.39
2019-03-05T00:31:58.798Z,64.07
2019-03-05T00:35:07.356Z,64.44
2019-03-05T00:38:13.602Z,64.25
2019-03-05T00:41:08.091Z,64.36
2019-03-05T00:43:47.367Z,64.38
2019-03-05T00:47:06.576Z,64.30
2019-03-05T00:50:14.615Z,64.00
2019-03-05T00:56:40.534Z,63.39
2019-03-05T01:02:51.673Z,63.03
2019-03-05T01:05:59.361Z,63.09
2019-03-05T01:09:08.575Z,62.73
2019-03-05T01:11:39.178Z,63.02
2019-03-05T01:14:09.433Z,63.13
2019-03-05T01:16:38.902Z,63.42
2019-03-05T01:22:18.002Z,63.14
2019-03-05T01:28:21.358Z,63.77
2019-03-05T01:37:17.655Z,62.97
2019-03-05T01:39:53.263Z,62.88
2019-03-05T01:42:22.693Z,62.77
2019-03-05T01:44:52.147Z,62.38
2019-03-05T01:47:21.552Z,62.74
2019-03-05T01:58:49.288Z,62.11
2019-03-05T02:01:18.702Z,61.79
2019-03-05T02:06:44.630Z,61.87
2019-03-05T02:12:28.322Z,60.83
2019-03-05T02:18:46.458Z,59.99
2019-03-05T02:21:15.838Z,59.57
2019-03-05T02:24:32.268Z,58.96
2019-03-05T02:27:52.821Z,59.01
2019-03-05T02:31:07.492Z,58.98
2019-03-05T02:33:53.659Z,58.38
2019-03-05T02:36:54.480Z,58.43
2019-03-05T02:43:25.493Z,58.83
2019-03-05T02:50:05.962Z,58.56
2019-03-05T02:56:12.801Z,58.05
2019-03-05T02:58:40.472Z,57.85
2019-03-05T03:01:47.172Z,57.84
2019-03-05T03:04:19.067Z,57.67
2019-03-05T03:06:49.160Z,57.44
2019-03-05T03:09:44.421Z,57.55
2019-03-05T03:12:13.789Z,57.56
2019-03-05T03:14:43.172Z,58.05
2019-03-05T03:17:12.592Z,58.17
2019-03-05T03:19:54.312Z,58.10
2019-03-05T03:23:03.539Z,58.34
2019-03-05T03:25:33.185Z,58.58
2019-03-05T03:28:02.748Z,59.00
2019-03-05T03:30:32.527Z,59.11
2019-03-05T03:33:01.932Z,59.47
2019-03-05T03:35:31.287Z,59.40
2019-03-05T03:38:00.711Z,59.50
2019-03-05T03:40:30.880Z,59.61
2019-03-05T03:43:01.122Z,59.65
2019-03-05T03:45:30.520Z,59.66
2019-03-05T03:47:59.914Z,59.72
2019-03-05T03:50:29.365Z,59.81
2019-03-05T03:52:59.351Z,59.91
2019-03-05T03:55:29.101Z,60.18
2019-03-05T03:57:59.785Z,60.43
2019-03-05T04:00:29.614Z,60.38
2019-03-05T04:02:58.998Z,60.42
2019-03-05T04:05:28.516Z,60.51
2019-03-05T04:07:57.868Z,60.45
2019-03-05T04:10:27.352Z,60.47
2019-03-05T04:12:56.781Z,60.36
2019-03-05T04:15:26.757Z,60.31
2019-03-05T04:18:35.647Z,60.59
2019-03-05T04:24:18.586Z,60.31
2019-03-05T04:26:48.030Z,60.13
2019-03-05T04:29:18.145Z,60.38
2019-03-05T04:31:48.774Z,60.26
2019-03-05T04:34:19.712Z,60.07
2019-03-05T04:36:49.120Z,60.02
2019-03-05T04:39:18.518Z,60.02
2019-03-05T04:41:47.879Z,60.18
2019-03-05T04:44:23.779Z,60.14
2019-03-05T04:46:55.232Z,60.28
2019-03-05T04:49:43.829Z,60.30
2019-03-05T04:55:47.014Z,60.42
2019-03-05T05:07:09.728Z,61.06
2019-03-05T05:09:39.320Z,61.08
2019-03-05T05:12:08.730Z,61.05
2019-03-05T05:14:38.134Z,61.17
2019-03-05T05:17:07.480Z,61.00
2019-03-05T05:19:37.182Z,60.98
2019-03-05T05:25:02.598Z,61.18
2019-03-05T05:27:32.353Z,61.11
2019-03-05T05:30:02.227Z,61.23
2019-03-05T05:32:31.692Z,61.30
2019-03-05T05:35:01.364Z,61.57
2019-03-05T05:37:50.140Z,61.55
2019-03-05T05:40:40.070Z,61.54
2019-03-05T05:43:50.129Z,61.31
2019-03-05T05:46:19.882Z,61.45
2019-03-05T05:51:45.028Z,61.03
2019-03-05T05:54:14.628Z,59.66
2019-03-05T05:56:44.148Z,59.07
2019-03-05T05:59:52.824Z,58.70
2019-03-05T06:02:22.949Z,57.91
2019-03-05T06:04:52.855Z,56.80
2019-03-05T06:07:22.303Z,57.07
2019-03-05T06:09:51.814Z,56.21
2019-03-05T06:12:21.284Z,56.63
2019-03-05T06:14:51.102Z,56.36
2019-03-05T06:17:21.612Z,54.79
2019-03-05T06:19:51.199Z,54.23
2019-03-05T06:22:20.599Z,54.41
2019-03-05T06:25:09.863Z,53.57
2019-03-05T06:27:39.767Z,53.68
2019-03-05T06:30:12.002Z,52.98
2019-03-05T06:33:20.867Z,52.92
2019-03-05T06:35:50.835Z,50.43
2019-03-05T06:41:35.706Z,45.30
2019-03-05T06:44:05.063Z,41.38
2019-03-05T06:46:34.393Z,37.45
2019-03-05T06:49:03.823Z,39.37
2019-03-05T06:51:33.210Z,39.30
2019-03-05T06:54:02.708Z,39.55
2019-03-05T06:56:32.214Z,39.55
2019-03-05T06:59:21.367Z,40.44
2019-03-05T07:01:50.772Z,40.44
2019-03-05T07:04:20.220Z,41.33
2019-03-05T07:07:29.898Z,39.75
2019-03-05T07:10:37.238Z,39.61
2019-03-05T07:13:10.141Z,39.38
2019-03-05T07:16:17.882Z,39.57
2019-03-05T07:22:24.305Z,37.43
2019-03-05T07:24:54.899Z,38.29
2019-03-05T07:27:28.221Z,37.81
2019-03-05T07:30:00.754Z,37.01
2019-03-05T07:32:30.227Z,36.75
2019-03-05T07:34:59.709Z,36.00
2019-03-05T07:37:30.116Z,36.02
2019-03-05T07:39:59.920Z,36.72
2019-03-05T07:42:30.088Z,35.63
2019-03-05T07:44:59.783Z,35.34
2019-03-05T07:47:29.199Z,33.92
2019-03-05T07:49:58.555Z,32.45
2019-03-05T07:52:28.444Z,30.49
2019-03-05T07:54:57.827Z,28.48
2019-03-05T07:57:27.236Z,27.79
2019-03-05T07:59:56.961Z,25.24
2019-03-05T08:02:26.822Z,25.24
2019-03-05T08:04:57.349Z,24.31
2019-03-05T08:08:06.186Z,23.35
2019-03-05T08:14:28.639Z,22.12
2019-03-05T08:16:57.991Z,21.61
2019-03-05T08:19:27.902Z,19.78
2019-03-05T08:21:57.424Z,19.18
2019-03-05T08:24:27.047Z,17.68
2019-03-05T08:26:56.585Z,15.94
2019-03-05T08:29:28.738Z,15.15
2019-03-05T08:31:58.544Z,14.28
2019-03-05T08:34:27.883Z,13.42
2019-03-05T08:42:27.599Z,13.51
2019-03-05T08:45:36.478Z,12.00
2019-03-05T08:48:06.495Z,11.79
2019-03-05T08:55:19.074Z,11.60
2019-03-05T08:57:48.588Z,13.35
2019-03-05T09:00:58.009Z,12.75
2019-03-05T09:06:41.193Z,10.93
2019-03-05T09:12:12.812Z,9.53
2019-03-05T09:14:42.272Z,10.57
2019-03-05T09:17:12.184Z,9.61
2019-03-05T09:19:41.586Z,9.39
2019-03-05T09:22:11.672Z,9.45
2019-03-05T09:25:20.621Z,8.94
2019-03-05T09:30:55.047Z,10.31
2019-03-05T09:33:24.493Z,9.84
2019-03-05T09:35:53.827Z,9.62
2019-03-05T09:38:23.186Z,8.98
2019-03-05T09:40:52.585Z,9.04
2019-03-05T09:43:22.522Z,9.23
2019-03-05T09:46:11.417Z,9.27
2019-03-05T09:49:00.273Z,8.73
2019-03-05T09:51:32.548Z,8.88
2019-03-05T09:54:41.440Z,9.42
2019-03-05T09:57:11.011Z,7.25
2019-03-05T09:59:40.709Z,7.96
2019-03-05T10:02:10.305Z,7.82
2019-03-05T10:04:39.818Z,7.56
2019-03-05T10:07:18.506Z,7.42
2019-03-05T10:09:41.013Z,8.43
2019-03-05T10:12:10.950Z,11.70
2019-03-05T10:14:40.326Z,15.50
2019-03-05T10:17:50.280Z,16.51
2019-03-05T10:21:01.558Z,18.70
2019-03-05T10:27:04.225Z,17.37
2019-03-05T10:33:22.020Z,10.34
2019-03-05T10:39:17.987Z,9.19
2019-03-05T10:42:26.870Z,9.00
2019-03-05T10:44:56.217Z,8.59
2019-03-05T10:47:25.628Z,7.80
2019-03-05T10:49:57.167Z,6.98
2019-03-05T10:52:27.021Z,6.78
2019-03-05T10:54:56.573Z,6.64
2019-03-05T11:01:02.362Z,6.03
2019-03-05T11:06:47.346Z,6.30
2019-03-05T11:09:20.541Z,6.16
2019-03-05T11:11:49.957Z,6.82
2019-03-05T11:14:19.420Z,6.30
2019-03-05T11:16:49.951Z,6.25
2019-03-05T11:19:39.314Z,6.34
2019-03-05T11:25:23.773Z,6.96
2019-03-05T11:27:53.290Z,5.89
2019-03-05T11:30:35.302Z,6.06
2019-03-05T11:32:55.962Z,6.86
2019-03-05T11:35:26.863Z,6.27
2019-03-05T11:37:56.422Z,7.12
2019-03-05T11:40:26.344Z,6.91
2019-03-05T11:42:55.653Z,5.86
2019-03-05T11:45:26.660Z,6.32
2019-03-05T11:48:35.423Z,5.97
2019-03-05T11:53:59.826Z,8.43
2019-03-05T11:56:29.780Z,9.02
2019-03-05T11:58:59.210Z,10.63
2019-03-05T12:02:09.819Z,11.93
2019-03-05T12:04:39.703Z,12.85
2019-03-05T12:07:09.717Z,14.24
2019-03-05T12:09:39.245Z,14.51
2019-03-05T12:15:22.864Z,14.31
2019-03-05T12:18:11.664Z,13.49
2019-03-05T12:20:42.179Z,13.05
2019-03-05T12:23:11.895Z,11.29
2019-03-05T12:25:42.801Z,10.52
2019-03-05T12:28:12.160Z,9.67
2019-03-05T12:31:21.094Z,9.52
2019-03-05T12:33:50.857Z,10.04
2019-03-05T12:36:59.671Z,10.17
2019-03-05T12:39:29.204Z,9.39
2019-03-05T12:44:53.468Z,8.32
2019-03-05T12:47:23.043Z,7.94
2019-03-05T12:49:52.413Z,7.73
2019-03-05T12:52:21.887Z,8.47
2019-03-05T12:54:51.293Z,7.82
2019-03-05T13:00:19.228Z,7.29
2019-03-05T13:02:48.837Z,7.40
2019-03-05T13:08:14.368Z,9.19
2019-03-05T13:10:45.222Z,10.64
2019-03-05T13:13:15.390Z,9.57
2019-03-05T13:15:46.307Z,8.75
2019-03-05T13:18:15.671Z,8.68
2019-03-05T13:21:24.549Z,8.91
2019-03-05T13:23:54.116Z,9.34
2019-03-05T13:27:02.981Z,8.90
2019-03-05T13:29:32.959Z,8.88
2019-03-05T13:32:03.598Z,8.67
2019-03-05T13:34:33.665Z,9.21
2019-03-05T13:37:42.712Z,9.51
2019-03-05T13:43:28.007Z,13.60
2019-03-05T13:46:16.458Z,15.56
2019-03-05T13:49:23.923Z,16.11
2019-03-05T13:52:32.155Z,14.64
2019-03-05T13:55:41.302Z,14.19
2019-03-05T13:58:49.145Z,16.36
2019-03-05T14:05:11.828Z,19.88
2019-03-05T14:08:19.619Z,20.47
2019-03-05T14:11:28.383Z,20.82
2019-03-05T14:17:32.634Z,21.85
2019-03-05T14:20:02.210Z,22.47
2019-03-05T14:22:31.593Z,22.29
2019-03-05T14:25:02.552Z,22.30
2019-03-05T14:27:32.435Z,23.12
2019-03-05T14:30:03.065Z,23.36
2019-03-05T14:32:33.405Z,22.69
2019-03-05T14:35:05.128Z,22.69
2019-03-05T14:37:34.733Z,23.80
2019-03-05T14:40:22.999Z,23.00
2019-03-05T14:42:36.104Z,23.00
2019-03-05T14:48:04.279Z,25.04
2019-03-05T14:51:12.280Z,24.55
2019-03-05T14:53:42.056Z,25.07
2019-03-05T14:59:47.409Z,24.95
2019-03-05T15:02:16.697Z,24.54
2019-03-05T15:07:34.496Z,24.70
2019-03-05T15:12:59.605Z,25.17
2019-03-05T15:15:30.434Z,25.30
2019-03-05T15:18:00.354Z,25.59
2019-03-05T15:20:29.978Z,25.65
2019-03-05T15:23:01.505Z,25.92
2019-03-05T15:26:10.278Z,25.92
2019-03-05T15:28:40.301Z,25.83
2019-03-05T15:31:09.815Z,26.14
2019-03-05T15:33:58.634Z,25.57
2019-03-05T15:36:28.501Z,25.57
2019-03-05T15:39:17.142Z,26.10
2019-03-05T15:41:58.242Z,26.23
2019-03-05T15:44:40.423Z,26.99
2019-03-05T15:47:21.464Z,26.94
2019-03-05T15:50:03.767Z,26.94
2019-03-05T15:52:33.308Z,26.68
2019-03-05T15:55:23.505Z,27.34
2019-03-05T16:00:57.985Z,27.68
2019-03-05T16:03:27.402Z,28.42
2019-03-05T16:05:57.745Z,28.34
2019-03-05T16:08:47.476Z,27.98
2019-03-05T16:14:38.340Z,29.74
2019-03-05T16:17:20.011Z,29.92
2019-03-05T16:20:29.950Z,30.04
2019-03-05T16:23:00.283Z,30.04
2019-03-05T16:28:24.676Z,31.44
2019-03-05T16:37:12.606Z,32.58
2019-03-05T16:39:57.833Z,33.18
2019-03-05T16:42:43.217Z,33.72
2019-03-05T16:45:34.702Z,33.60
2019-03-05T16:51:43.350Z,33.69
2019-03-05T16:54:31.643Z,33.99
2019-03-05T16:57:19.978Z,34.83
2019-03-05T17:00:08.248Z,35.35
2019-03-05T17:02:58.412Z,35.53
2019-03-05T17:05:46.840Z,36.06
2019-03-05T17:08:35.511Z,35.87
2019-03-05T17:20:10.386Z,36.39
2019-03-05T17:22:40.112Z,37.17
2019-03-05T17:25:13.198Z,36.92
2019-03-05T17:27:42.974Z,37.57
2019-03-05T17:30:53.175Z,38.08
2019-03-05T17:33:22.680Z,37.74
2019-03-05T17:42:10.305Z,39.25
2019-03-05T17:44:39.803Z,39.87
2019-03-05T17:47:09.314Z,40.14
2019-03-05T17:49:38.882Z,39.96
2019-03-05T17:52:47.615Z,39.81
2019-03-05T17:55:24.143Z,40.24
2019-03-05T17:57:50.953Z,39.90
2019-03-05T18:01:00.110Z,40.07
2019-03-05T18:03:29.734Z,40.13
2019-03-05T18:06:38.548Z,40.79
2019-03-05T18:09:48.379Z,40.34
2019-03-05T18:14:57.531Z,40.82
2019-03-05T18:17:27.271Z,41.04
2019-03-05T18:29:07.983Z,42.18
2019-03-05T18:31:37.671Z,42.76
2019-03-05T18:34:07.137Z,42.04
2019-03-05T18:36:36.700Z,42.93
2019-03-05T18:39:07.072Z,42.80
2019-03-05T18:41:36.651Z,43.23
2019-03-05T18:44:47.922Z,43.73
2019-03-05T18:47:18.905Z,43.98
2019-03-05T18:50:27.805Z,44.08
2019-03-05T19:02:22.173Z,44.22
2019-03-05T19:05:31.139Z,44.89
2019-03-05T19:19:41.435Z,45.85
2019-03-05T19:22:11.054Z,45.60
2019-03-05T19:24:40.404Z,46.16
2019-03-05T19:27:10.533Z,46.20
2019-03-05T19:29:40.500Z,46.66
2019-03-05T19:32:12.095Z,46.69
2019-03-05T19:34:42.515Z,47.56
2019-03-05T19:37:12.485Z,47.11
2019-03-05T19:39:42.354Z,47.20
2019-03-05T19:42:12.224Z,47.13
2019-03-05T19:44:42.531Z,47.33
2019-03-05T19:47:11.914Z,46.97
2019-03-05T19:50:02.409Z,47.27
2019-03-05T19:52:31.829Z,47.35
2019-03-05T19:55:01.457Z,47.50
2019-03-05T20:03:24.281Z,47.89
2019-03-05T20:05:54.273Z,48.16
2019-03-05T20:08:43.994Z,48.42
2019-03-05T20:14:14.857Z,48.70
2019-03-05T20:16:44.289Z,48.65
2019-03-05T20:19:14.723Z,48.28
2019-03-05T20:21:44.895Z,48.97
2019-03-05T20:24:14.829Z,48.75
2019-03-05T20:26:45.058Z,48.45
2019-03-05T20:29:14.731Z,48.92
2019-03-05T20:31:44.108Z,49.26
2019-03-05T20:34:13.571Z,49.21
2019-03-05T20:36:43.030Z,49.49
2019-03-05T20:42:02.236Z,49.56
2019-03-05T20:44:31.893Z,49.52
2019-03-05T20:49:50.683Z,49.23
2019-03-05T20:52:20.080Z,49.23
2019-03-05T20:54:49.509Z,48.85
2019-03-05T20:57:20.106Z,49.28
2019-03-05T20:59:49.457Z,49.18
2019-03-05T21:02:19.298Z,49.58
2019-03-05T21:04:48.717Z,49.08
2019-03-05T21:10:27.124Z,49.06
2019-03-05T21:12:56.489Z,49.10
2019-03-05T21:15:26.516Z,49.20
2019-03-05T21:17:56.109Z,49.24
2019-03-05T21:20:25.576Z,49.41
2019-03-05T21:22:54.961Z,49.41
2019-03-05T21:25:24.764Z,49.49
2019-03-05T21:27:56.267Z,49.74
2019-03-05T21:33:33.698Z,49.76
2019-03-05T21:36:03.061Z,49.62
2019-03-05T21:38:32.801Z,49.72
2019-03-05T21:41:41.601Z,49.88
2019-03-05T21:44:11.085Z,50.01
2019-03-05T21:49:35.900Z,50.59
2019-03-05T21:52:05.356Z,50.44
2019-03-05T21:54:35.118Z,50.36
2019-03-05T21:57:08.259Z,50.54
2019-03-05T21:59:37.690Z,50.86
2019-03-05T22:02:07.170Z,50.41
2019-03-05T22:05:15.995Z,50.60
2019-03-05T22:11:00.369Z,50.58
2019-03-05T22:13:29.827Z,50.61
2019-03-05T22:15:59.148Z,50.45
2019-03-05T22:21:25.294Z,50.30
2019-03-05T22:23:54.651Z,50.20
2019-03-05T22:29:30.184Z,50.00
2019-03-05T22:31:59.979Z,50.17
2019-03-05T22:34:39.704Z,49.76
2019-03-05T22:43:00.679Z,49.52
2019-03-05T22:45:30.077Z,49.28
2019-03-05T22:47:59.404Z,49.46
2019-03-05T22:50:28.866Z,49.41
2019-03-05T22:52:58.185Z,49.52
2019-03-05T22:55:47.160Z,49.74
2019-03-05T22:58:16.559Z,49.44
2019-03-05T23:01:21.932Z,49.61
2019-03-05T23:09:48.449Z,49.87
2019-03-05T23:18:28.684Z,50.05
2019-03-05T23:21:38.064Z,50.13
2019-03-05T23:24:09.680Z,49.96
2019-03-05T23:26:39.062Z,50.34
2019-03-05T23:29:48.142Z,50.29
2019-03-05T23:35:43.655Z,50.13
2019-03-05T23:38:13.226Z,50.57
2019-03-05T23:40:42.684Z,50.50
2019-03-05T23:43:12.193Z,50.61
2019-03-05T23:45:41.661Z,50.45
2019-03-05T23:54:26.668Z,50.79
